createdAt,value
2019-06-26T00:05:25.802Z,0
2019-06-26T00:11:00.210Z,0
2019-06-26T00:16:40.744Z,0
2019-06-26T00:22:20.047Z,0
2019-06-26T00:27:43.182Z,0
2019-06-26T00:33:18.246Z,0
2019-06-26T00:38:58.984Z,0
2019-06-26T00:44:33.930Z,0
2019-06-26T00:50:01.542Z,0
2019-06-26T00:55:39.138Z,0
2019-06-26T01:01:06.392Z,0
2019-06-26T01:06:50.828Z,0
2019-06-26T01:12:15.096Z,0
2019-06-26T01:17:51.980Z,0
2019-06-26T01:23:29.557Z,0
2019-06-26T01:29:02.242Z,0
2019-06-26T01:34:40.561Z,0
2019-06-26T01:45:42.746Z,0
2019-06-26T01:51:24.245Z,0
2019-06-26T01:56:49.777Z,0
2019-06-26T02:02:31.722Z,0
2019-06-26T02:08:07.911Z,0
2019-06-26T02:13:41.324Z,0
2019-06-26T02:19:17.606Z,0
2019-06-26T02:24:38.092Z,0
2019-06-26T02:30:17.683Z,0
2019-06-26T02:35:51.703Z,0
2019-06-26T02:41:30.075Z,0
2019-06-26T02:47:17.482Z,0
2019-06-26T02:52:32.458Z,0
2019-06-26T02:58:06.486Z,0
2019-06-26T03:03:49.947Z,0
2019-06-26T03:09:21.006Z,0
2019-06-26T03:14:49.448Z,0
2019-06-26T03:20:31.766Z,0
2019-06-26T03:25:52.789Z,0
2019-06-26T03:31:34.669Z,0
2019-06-26T03:37:01.652Z,0
2019-06-26T03:42:36.980Z,0
2019-06-26T03:48:20.644Z,0
2019-06-26T03:53:49.297Z,0
2019-06-26T03:59:15.122Z,0
2019-06-26T04:04:49.719Z,0
2019-06-26T04:10:36.674Z,0
2019-06-26T04:15:58.827Z,0
2019-06-26T04:21:34.215Z,0
2019-06-26T04:27:14.838Z,0
2019-06-26T04:32:53.478Z,0
2019-06-26T04:38:16.043Z,0
2019-06-26T04:44:01.178Z,0
2019-06-26T04:49:23.344Z,0
2019-06-26T04:55:02.299Z,0
2019-06-26T05:00:33.654Z,0
2019-06-26T05:06:13.900Z,0
2019-06-26T05:11:46.327Z,0
2019-06-26T05:17:24.000Z,0
2019-06-26T05:23:01.713Z,0
2019-06-26T05:28:32.503Z,0
2019-06-26T05:34:11.594Z,0
2019-06-26T05:39:38.644Z,0
2019-06-26T05:45:19.164Z,0
2019-06-26T05:50:46.994Z,0
2019-06-26T05:56:18.544Z,0
2019-06-26T06:02:03.255Z,0
2019-06-26T06:07:31.153Z,0
2019-06-26T06:13:03.516Z,0
2019-06-26T06:18:45.629Z,0
2019-06-26T06:24:18.338Z,0
2019-06-26T06:29:51.247Z,0
2019-06-26T06:35:32.744Z,0
2019-06-26T06:41:05.753Z,0
2019-06-26T06:46:36.287Z,0
2019-06-26T06:52:23.886Z,0
2019-06-26T06:57:57.942Z,0
2019-06-26T07:03:31.691Z,0
2019-06-26T07:09:11.192Z,0
2019-06-26T07:14:38.266Z,0
2019-06-26T07:20:13.361Z,0
2019-06-26T07:25:58.430Z,0
2019-06-26T07:31:33.992Z,0
2019-06-26T07:37:05.020Z,0
2019-06-26T07:42:48.371Z,0
2019-06-26T07:48:23.870Z,4.8
2019-06-26T07:53:55.664Z,9.6
2019-06-26T07:59:37.811Z,4.8
2019-06-26T08:10:48.636Z,7.2
2019-06-26T08:16:28.982Z,5.9
2019-06-26T08:22:07.603Z,0
2019-06-26T08:27:40.912Z,0
2019-06-26T08:33:09.027Z,0
2019-06-26T08:38:57.629Z,0
2019-06-26T08:44:34.562Z,0
2019-06-26T08:50:13.235Z,0
2019-06-26T08:55:44.447Z,0
2019-06-26T09:01:26.628Z,0
2019-06-26T09:07:07.555Z,0
2019-06-26T09:12:33.167Z,7.2
2019-06-26T09:18:09.727Z,0
2019-06-26T09:23:47.035Z,5.9
2019-06-26T09:29:29.196Z,0
2019-06-26T09:40:48.857Z,0
2019-06-26T09:46:28.321Z,0
2019-06-26T09:52:05.621Z,0
2019-06-26T09:57:36.739Z,7.2
2019-06-26T10:03:20.858Z,2.4
2019-06-26T10:14:46.448Z,8.4
2019-06-26T10:20:15.234Z,7.2
2019-06-26T10:25:51.549Z,10.7
2019-06-26T10:31:25.972Z,8.4
2019-06-26T10:37:14.477Z,4.8
2019-06-26T10:42:41.360Z,10.7
2019-06-26T10:48:20.828Z,8.4
2019-06-26T10:54:07.000Z,8.4
2019-06-26T10:59:44.107Z,5.9
2019-06-26T11:05:18.038Z,0
2019-06-26T11:10:51.323Z,0
2019-06-26T11:16:39.653Z,0
2019-06-26T11:22:10.802Z,0
2019-06-26T11:27:48.565Z,0
2019-06-26T11:33:26.265Z,0
2019-06-26T11:39:01.779Z,0
2019-06-26T11:44:52.301Z,9.6
2019-06-26T11:50:24.840Z,9.6
2019-06-26T11:55:56.634Z,9.6
2019-06-26T12:01:40.689Z,10.7
2019-06-26T12:07:26.176Z,0
2019-06-26T12:18:41.721Z,0
2019-06-26T12:24:19.559Z,0
2019-06-26T12:29:55.756Z,0
2019-06-26T12:35:23.782Z,0
2019-06-26T12:41:14.557Z,0
2019-06-26T12:46:48.959Z,0
2019-06-26T12:52:24.158Z,0
2019-06-26T12:58:12.139Z,0
2019-06-26T13:03:48.862Z,0
2019-06-26T13:09:18.463Z,0
2019-06-26T13:15:03.286Z,0
2019-06-26T13:20:51.489Z,0
2019-06-26T13:26:12.816Z,0
2019-06-26T13:31:49.846Z,0
2019-06-26T13:37:39.557Z,0
2019-06-26T13:43:12.796Z,0
2019-06-26T13:48:49.833Z,0
2019-06-26T13:54:30.218Z,0
2019-06-26T14:05:56.004Z,0
2019-06-26T14:11:27.030Z,0
2019-06-26T14:17:06.403Z,0
2019-06-26T14:22:46.930Z,0
2019-06-26T14:28:22.030Z,0
2019-06-26T14:34:03.124Z,0
2019-06-26T14:39:41.431Z,0
2019-06-26T14:45:27.880Z,0
2019-06-26T14:51:06.128Z,0
2019-06-26T14:56:41.819Z,0
2019-06-26T15:02:17.171Z,0
2019-06-26T15:07:52.666Z,0
2019-06-26T15:13:30.582Z,0
2019-06-26T15:19:20.067Z,0
2019-06-26T15:24:59.227Z,0
2019-06-26T15:30:30.316Z,0
2019-06-26T15:36:21.493Z,0
2019-06-26T15:41:50.661Z,0
2019-06-26T15:47:30.507Z,0
2019-06-26T15:53:11.259Z,0
2019-06-26T15:58:47.253Z,0
2019-06-26T16:04:35.419Z,0
2019-06-26T16:10:02.324Z,0
2019-06-26T16:15:51.021Z,0
2019-06-26T16:21:26.995Z,0
2019-06-26T16:27:12.894Z,0
2019-06-26T16:32:50.397Z,0
2019-06-26T16:38:25.191Z,0
2019-06-26T16:43:58.452Z,0
2019-06-26T16:49:44.773Z,0
2019-06-26T16:55:16.622Z,0
2019-06-26T17:00:54.267Z,0
2019-06-26T17:06:31.838Z,0
2019-06-26T17:12:20.250Z,0
2019-06-26T17:17:52.432Z,0
2019-06-26T17:23:27.178Z,0
2019-06-26T17:29:09.011Z,0
2019-06-26T17:34:45.612Z,0
2019-06-26T17:40:24.930Z,0
2019-06-26T17:45:58.438Z,0
2019-06-26T17:51:35.765Z,0
2019-06-26T17:57:17.740Z,0
2019-06-26T18:02:50.584Z,0
2019-06-26T18:08:33.806Z,0
2019-06-26T18:14:04.578Z,0
2019-06-26T18:19:38.698Z,0
2019-06-26T18:25:22.434Z,0
2019-06-26T18:31:02.453Z,0
2019-06-26T18:36:37.750Z,0
2019-06-26T18:42:12.668Z,0
2019-06-26T18:47:50.098Z,0
2019-06-26T18:53:22.913Z,0
2019-06-26T18:58:55.463Z,0
2019-06-26T19:04:26.422Z,0
2019-06-26T19:10:10.905Z,0
2019-06-26T19:15:43.193Z,0
2019-06-26T19:21:22.051Z,0
2019-06-26T19:26:58.463Z,0
2019-06-26T19:32:19.951Z,0
2019-06-26T19:37:56.974Z,0
2019-06-26T19:43:37.018Z,0
2019-06-26T19:49:18.852Z,0
2019-06-26T19:54:44.135Z,0
2019-06-26T20:00:24.285Z,0
2019-06-26T20:06:01.998Z,14.4
2019-06-26T20:11:39.165Z,14.4
2019-06-26T20:17:03.311Z,15.6
2019-06-26T20:22:45.116Z,14.4
2019-06-26T20:28:16.390Z,16.8
2019-06-26T20:34:00.937Z,15.6
2019-06-26T20:39:29.172Z,11.9
2019-06-26T20:45:03.924Z,13.2
2019-06-26T20:50:36.861Z,13.2
2019-06-26T20:56:16.842Z,14.4
2019-06-26T21:01:48.106Z,13.2
2019-06-26T21:07:37.215Z,11.9
2019-06-26T21:13:13.796Z,13.2
2019-06-26T21:18:39.173Z,13.2
2019-06-26T21:24:21.425Z,13.2
2019-06-26T21:29:51.245Z,14.4
2019-06-26T21:35:28.555Z,11.9
2019-06-26T21:41:08.512Z,5.9
2019-06-26T21:46:42.479Z,0
2019-06-26T21:52:14.890Z,0
2019-06-26T21:57:47.266Z,0
2019-06-26T22:03:20.604Z,0
2019-06-26T22:08:51.419Z,0
2019-06-26T22:14:31.153Z,0
2019-06-26T22:20:00.263Z,0
2019-06-26T22:25:50.591Z,0
2019-06-26T22:31:11.154Z,0
2019-06-26T22:36:52.630Z,0
2019-06-26T22:42:18.006Z,0
2019-06-26T22:47:55.135Z,0
2019-06-26T22:53:31.410Z,0
2019-06-26T22:59:04.950Z,0
2019-06-26T23:04:36.493Z,0
2019-06-26T23:10:09.762Z,0
2019-06-26T23:15:47.182Z,0
2019-06-26T23:21:29.079Z,0
2019-06-26T23:26:52.027Z,0
2019-06-26T23:32:31.279Z,0
2019-06-26T23:38:04.464Z,0
2019-06-26T23:43:48.456Z,0
2019-06-26T23:49:10.964Z,0
2019-06-26T23:54:54.376Z,0
